ソウル/仁川 の空港の天気 - METARとTAF

仁川国際空港 ( RKSI / ICN ) - 韓国 仁川広域市 (ソウル特別市近郊)
飛行場実況気象(Metar)
観測時間07/16 15:30 KST (07/16 06:30 UTC)
風向・風速北西 4m/s
視程10km以上
天気現象
なし
気温30℃
湿度55%
気圧1012hPa
METARRKSI 160630Z 31007KT 270V330 CAVOK 30/20 Q1012 NOSIG
過去の天気等 Google飛行場航空写真 Wunderground天気予報

過去48時間のMETAR

飛行場予報(TAF)
発表時間: 7/16 14:00 KST (7/16 05:00 UTC)
予報対象時間: 16日15時 KST ~ 17日21時 KST
風向・風速北西 4m/s
視程10km以上
少しの雲 雲底高度 910m
17日0時 KST ~ 17日1時 KST に徐々に
風向・風速南西 3m/s
17日2時 KST ~ 17日3時 KST に徐々に
視程3500m
天気現象もや
17日5時 KST ~ 17日7時 KST に一時的に
視程600m
天気現象
全天の8割程度の雲 雲底高度 30m
17日8時 KST ~ 17日9時 KST に徐々に
視程6000m
天気現象運行に影響にある天気現象が終了
17日10時 KST ~ 17日11時 KST に徐々に
風向・風速北西 4m/s
TAF RKSI 160500Z 1606/1712 31007KT 9999 FEW030 TN23/1621Z TX30/1706Z
BECMG 1615/1616 22006KT
BECMG 1617/1618 3500 BR
TEMPO 1620/1622 0600 FG BKN001
BECMG 1623/1624 6000 NSW
BECMG 1701/1702 31007KT